Flight Track Log - Related Links

Times and Time Zones

All times are in EST time to prevent confusion due to time zone crossing. See the TRS9303 flight status page for this flight to view local times or setup timezone preferences in your user account.

Time Position Orientation Groundspeed Altitude Reporting Facility
EST Latitude Longitude Course Direction KTS MPH feet Rate Location/Type
Fri 01:42:59 PM 29.5483 -98.4464 37° Northeast 158 182 1,600  Level Houston Center
Fri 01:43:48 PM 29.5833 -98.4158 37° Northeast 209 241 3,700 2,877 Climbing Houston Center
Fri 01:44:12 PM 29.6036 -98.3942 43° Northeast 227 261 5,100 3,700 Climbing Houston Center
Fri 01:44:48 PM 29.5975 -98.3419 98° East 294 338 7,400 4,131 Climbing Houston Center
Fri 01:45:13 PM 29.5753 -98.3089 128° Southeast 284 327 9,300 3,099 Climbing Houston Center
Fri 01:46:19 PM 29.4931 -98.3131 183° South 305 351 12,100 3,000 Climbing Houston Center
Fri 01:47:17 PM 29.3894 -98.3156 181° South 365 420 15,500 3,492 Climbing Houston Center
Fri 01:48:21 PM 29.2719 -98.3181 181° South 387 445 19,200 3,216 Climbing Houston Center
Fri 01:49:22 PM 29.1586 -98.3111 177° South 414 476 22,200 2,780 Climbing Houston Center
Fri 01:50:24 PM 29.0306 -98.2800 168° South 437 503 24,900 2,508 Climbing Houston Center
Fri 01:51:24 PM 28.9078 -98.2508 168° South 453 521 27,300 2,208 Climbing Houston Center
Fri 01:52:29 PM 28.7722 -98.2175 168° South 463 533 29,500 2,173 Climbing Houston Center
Fri 01:53:31 PM 28.6450 -98.1869 168° South 468 539 31,900 1,984 Climbing Houston Center
Fri 01:54:36 PM 28.5150 -98.1558 168° South 467 537 33,700 1,810 Climbing Houston Center
Fri 01:55:37 PM 28.3847 -98.1256 168° South 467 537 35,700 1,951 Climbing Houston Center
Fri 01:56:39 PM 28.2453 -98.0922 168° South 465 535 37,700 1,623 Climbing Houston Center
Fri 01:57:39 PM 28.1169 -98.0622 168° South 461 531 39,000 639 Climbing Houston Center
Fri 01:58:41 PM 27.9894 -98.0328 168° South 459 528 39,000  Level Houston Center
Fri 01:59:44 PM 27.8625 -98.0031 168° South 457 526 39,000  Level Houston Center
Fri 02:00:47 PM 27.7364 -97.9742 169° South 455 524 39,000  Level Houston Center
Fri 02:01:50 PM 27.5997 -97.9431 169° South 454 522 39,000  Level Houston Center
Fri 02:02:50 PM 27.4758 -97.9136 168° South 465 535 39,000  Level Houston Center
Fri 02:03:52 PM 27.3458 -97.8842 169° South 460 529 39,000  Level Houston Center
Fri 02:04:54 PM 27.2092 -97.8522 168° South 455 524 39,000  Level Houston Center
Fri 02:05:58 PM 27.0831 -97.8231 168° South 453 521 39,000  Level Houston Center
Fri 02:07:00 PM 26.9572 -97.7939 168° South 453 521 39,000  Level Houston Center
Fri 02:08:01 PM 26.8311 -97.7650 168° South 448 516 39,000  Level Houston Center
Fri 02:09:04 PM 26.6997 -97.7333 168° South 448 516 39,000  Level Houston Center
Fri 02:10:07 PM 26.5775 -97.7072 169° South 445 512 39,000  Level Houston Center
Fri 02:11:08 PM 26.4556 -97.6786 168° South 447 514 39,000  Level Houston Center
Fri 02:12:10 PM 26.3236 -97.6483 168° South 449 517 39,000  Level Houston Center
Fri 02:13:11 PM 26.2006 -97.6203 168° South 447 514 39,000  Level Houston Center
Fri 02:14:14 PM 26.0761 -97.5914 168° South 452 520 39,000  Level Houston Center
Fri 02:15:17 PM 25.9456 -97.5631 169° South 444 511 39,000  Level Houston Center
Fri 02:17:00 PM 25.7460 -97.5052 153° Southeast  Level FlightAware Approximate
Fri 02:24:00 PM 24.9918 -97.0891 153° Southeast  Level FlightAware Approximate
Fri 02:25:00 PM 24.8840 -97.0300 154° Southeast  Level FlightAware Approximate
Fri 02:26:00 PM 24.7761 -96.9711 154° Southeast  Level FlightAware Approximate
Fri 02:27:00 PM 24.6682 -96.9123 154° Southeast  Level FlightAware Approximate
Fri 02:28:00 PM 24.5603 -96.8535 154° Southeast  Level FlightAware Approximate
Fri 02:29:00 PM 24.4524 -96.7949 154° Southeast  Level FlightAware Approximate
Fri 02:30:00 PM 24.3445 -96.7364 154° Southeast  Level FlightAware Approximate
Fri 02:31:00 PM 24.2365 -96.6780 154° Southeast  Level FlightAware Approximate
Fri 02:32:00 PM 24.1285 -96.6197 154° Southeast  Level FlightAware Approximate
Fri 02:33:00 PM 24.0205 -96.5614 154° Southeast  Level FlightAware Approximate
Fri 02:34:00 PM 23.9124 -96.5033 154° Southeast  Level FlightAware Approximate
Fri 02:35:00 PM 23.8044 -96.4453 154° Southeast  Level FlightAware Approximate
Fri 02:36:00 PM 23.6963 -96.3873 154° Southeast  Level FlightAware Approximate
Fri 02:37:00 PM 23.5882 -96.3295 154° Southeast  Level FlightAware Approximate
Fri 02:38:00 PM 23.4800 -96.2718 154° Southeast  Level FlightAware Approximate
Fri 02:39:00 PM 23.3719 -96.2141 154° Southeast  Level FlightAware Approximate
Fri 02:40:00 PM 23.2637 -96.1565 154° Southeast  Level FlightAware Approximate
Fri 02:41:00 PM 23.1555 -96.0991 154° Southeast  Level FlightAware Approximate
Fri 02:42:00 PM 23.0473 -96.0417 154° Southeast  Level FlightAware Approximate
Fri 02:43:00 PM 22.9389 -95.9849 154° Southeast  Level FlightAware Approximate
Fri 02:44:00 PM 22.8303 -95.9284 154° Southeast  Level FlightAware Approximate
Fri 02:45:00 PM 22.7217 -95.8720 154° Southeast  Level FlightAware Approximate
Fri 02:46:00 PM 22.6131 -95.8158 154° Southeast  Level FlightAware Approximate
Fri 02:47:00 PM 22.5045 -95.7596 154° Southeast  Level FlightAware Approximate
Fri 02:48:00 PM 22.3958 -95.7035 154° Southeast  Level FlightAware Approximate
Fri 02:49:00 PM 22.2871 -95.6475 155° Southeast  Level FlightAware Approximate
Fri 02:50:00 PM 22.1784 -95.5916 155° Southeast  Level FlightAware Approximate
Fri 02:51:00 PM 22.0697 -95.5358 155° Southeast  Level FlightAware Approximate
Fri 02:52:00 PM 21.9610 -95.4800 155° Southeast  Level FlightAware Approximate
Fri 02:53:00 PM 21.8522 -95.4244 155° Southeast  Level FlightAware Approximate
Fri 02:54:00 PM 21.7434 -95.3688 155° Southeast  Level FlightAware Approximate
Fri 02:55:00 PM 21.6346 -95.3133 155° Southeast  Level FlightAware Approximate
Fri 02:56:00 PM 21.5258 -95.2579 155° Southeast  Level FlightAware Approximate
Fri 02:57:00 PM 21.4170 -95.2026 155° Southeast  Level FlightAware Approximate
Fri 02:58:00 PM 21.3081 -95.1474 155° Southeast  Level FlightAware Approximate
Fri 02:59:00 PM 21.1993 -95.0923 155° Southeast  Level FlightAware Approximate
Fri 03:00:00 PM 21.0904 -95.0372 155° Southeast  Level FlightAware Approximate
Fri 03:01:00 PM 20.9817 -94.9818 154° Southeast  Level FlightAware Approximate
Fri 03:02:00 PM 20.8734 -94.9254 154° Southeast  Level FlightAware Approximate
Fri 03:03:00 PM 20.7651 -94.8690 154° Southeast  Level FlightAware Approximate
Fri 03:04:00 PM 20.6568 -94.8128 154° Southeast  Level FlightAware Approximate
Fri 03:05:00 PM 20.5485 -94.7567 154° Southeast  Level FlightAware Approximate
Fri 03:06:00 PM 20.4402 -94.7006 154° Southeast  Level FlightAware Approximate
Fri 03:07:00 PM 20.3318 -94.6446 154° Southeast  Level FlightAware Approximate
Fri 03:08:00 PM 20.2235 -94.5887 154° Southeast  Level FlightAware Approximate
Fri 03:09:00 PM 20.1151 -94.5329 154° Southeast  Level FlightAware Approximate
Fri 03:10:00 PM 20.0067 -94.4771 154° Southeast  Level FlightAware Approximate
Fri 03:11:00 PM 19.8983 -94.4214 154° Southeast  Level FlightAware Approximate
Fri 03:12:00 PM 19.7898 -94.3658 154° Southeast  Level FlightAware Approximate
Fri 03:13:00 PM 19.6814 -94.3103 154° Southeast  Level FlightAware Approximate
Fri 03:14:00 PM 19.5729 -94.2549 154° Southeast  Level FlightAware Approximate
Fri 03:15:00 PM 19.4644 -94.1995 154° Southeast  Level FlightAware Approximate
Fri 03:16:00 PM 19.4172 -94.1181 69° East  Level FlightAware Approximate
Fri 03:17:00 PM 19.4594 -93.9985 69° East  Level FlightAware Approximate
Fri 03:18:00 PM 19.5015 -93.8789 69° East  Level FlightAware Approximate
Fri 03:19:00 PM 19.5436 -93.7592 70° East  Level FlightAware Approximate
Fri 03:20:00 PM 19.5855 -93.6394 70° East  Level FlightAware Approximate
Fri 03:21:00 PM 19.6274 -93.5196 70° East  Level FlightAware Approximate
Fri 03:22:00 PM 19.6693 -93.3997 70° East  Level FlightAware Approximate
Fri 03:23:00 PM 19.7110 -93.2798 70° East  Level FlightAware Approximate
Fri 03:24:00 PM 19.7527 -93.1598 70° East  Level FlightAware Approximate
Fri 03:25:00 PM 19.7942 -93.0397 70° East  Level FlightAware Approximate
Fri 03:26:00 PM 19.8357 -92.9196 70° East  Level FlightAware Approximate
Fri 03:27:00 PM 19.8771 -92.7994 70° East  Level FlightAware Approximate
Fri 03:28:00 PM 19.9185 -92.6792 70° East  Level FlightAware Approximate
Fri 03:29:00 PM 19.9597 -92.5589 70° East  Level FlightAware Approximate
Fri 03:30:00 PM 20.0009 -92.4385 70° East  Level FlightAware Approximate
Fri 03:31:00 PM 20.0420 -92.3180 70° East  Level FlightAware Approximate
Fri 03:32:00 PM 20.0830 -92.1975 70° East  Level FlightAware Approximate
Fri 03:33:00 PM 20.1239 -92.0770 70° East  Level FlightAware Approximate
Fri 03:34:00 PM 20.1665 -91.9570 68° East  Level FlightAware Approximate
Fri 03:35:00 PM 20.2122 -91.8384 68° East  Level FlightAware Approximate
Fri 03:36:00 PM 20.2551 -91.7185 70° East  Level FlightAware Approximate
Fri 03:37:00 PM 20.2956 -91.5976 70° East  Level FlightAware Approximate
Fri 03:38:00 PM 20.3360 -91.4767 70° East  Level FlightAware Approximate
Fri 03:39:00 PM 20.3763 -91.3557 70° East  Level FlightAware Approximate
Fri 03:40:00 PM 20.4165 -91.2346 70° East  Level FlightAware Approximate
Fri 03:41:00 PM 20.4566 -91.1135 71° East  Level FlightAware Approximate
Fri 03:42:00 PM 20.4967 -90.9923 71° East  Level FlightAware Approximate
Fri 03:43:00 PM 20.5367 -90.8711 71° East  Level FlightAware Approximate
Fri 03:44:00 PM 20.5765 -90.7497 71° East  Level FlightAware Approximate
Fri 03:45:00 PM 20.6164 -90.6284 71° East  Level FlightAware Approximate
Fri 03:46:00 PM 20.6561 -90.5069 71° East  Level FlightAware Approximate
Fri 03:47:00 PM 20.6957 -90.3854 71° East  Level FlightAware Approximate
Fri 03:48:00 PM 20.7353 -90.2638 71° East  Level FlightAware Approximate
Fri 03:49:00 PM 20.7747 -90.1422 71° East  Level FlightAware Approximate
Fri 03:50:00 PM 20.8141 -90.0205 71° East  Level FlightAware Approximate
Fri 03:51:00 PM 20.8534 -89.8988 71° East  Level FlightAware Approximate
Fri 03:52:00 PM 20.8926 -89.7769 71° East  Level FlightAware Approximate
Fri 03:53:00 PM 20.9317 -89.6550 71° East  Level FlightAware Approximate
Fri 03:54:00 PM 20.9333 -89.5264 90° East  Level FlightAware Approximate
Fri 03:55:00 PM 20.9335 -89.3975 86° East  Level FlightAware Approximate
Fri 03:56:00 PM 20.9410 -89.2689 86° East  Level FlightAware Approximate
Fri 03:57:00 PM 20.9484 -89.1402 86° East  Level FlightAware Approximate
Fri 03:58:00 PM 20.9558 -89.0115 86° East  Level FlightAware Approximate
Fri 03:59:00 PM 20.9630 -88.8828 87° East  Level FlightAware Approximate
Fri 04:00:00 PM 20.9667 -88.7540 90° East  Level FlightAware Approximate
Fri 04:01:00 PM 20.9667 -88.6251 90° East  Level FlightAware Approximate
Fri 04:02:00 PM 20.9669 -88.4962 86° East  Level FlightAware Approximate
Fri 04:03:00 PM 20.9750 -88.3675 86° East  Level FlightAware Approximate
Fri 04:04:00 PM 20.9830 -88.2389 86° East  Level FlightAware Approximate
Fri 04:05:00 PM 20.9896 -88.1101 87° East  Level FlightAware Approximate
Fri 04:06:00 PM 20.9960 -87.9814 87° East  Level FlightAware Approximate
Fri 04:07:00 PM 21.0000 -87.8525 90° East  Level FlightAware Approximate
Fri 04:08:00 PM 21.0000 -87.7236 90° East  Level FlightAware Approximate
Fri 04:09:00 PM 21.0000 -87.5946 90° East  Level FlightAware Approximate
Fri 04:10:00 PM 21.0061 -87.4659 86° East  Level FlightAware Approximate
Fri 04:11:00 PM 21.0152 -87.3373 86° East  Level FlightAware Approximate
Fri 04:12:00 PM 21.0167 -87.2084 90° East  Level FlightAware Approximate
Fri 04:13:00 PM 21.0167 -87.0794 90° East  Level FlightAware Approximate
Fri 04:14:00 PM 21.0167 -86.9504 90° East  Level FlightAware Approximate
Fri 04:15:00 PM 21.0167 -86.8667 90° East  Level FlightAware Approximate
Fri 04:16:00 PM 21.0365 -86.8771 90° East  Level Estimated
Fri 04:17:00 PM 21.0365 -86.8771 90° East  Level Estimated
Fri 04:18:00 PM 21.0365 -86.8771 90° East  Level Estimated
Fri 04:19:00 PM 21.0365 -86.8771 90° East  Level Estimated
Fri 04:20:00 PM 21.0365 -86.8771 90° East  Level Estimated
Fri 04:21:00 PM 21.0365 -86.8771 90° East  Level Estimated
Fri 04:22:00 PM 21.0365 -86.8771 90° East  Level Estimated
Fri 04:23:00 PM 21.0365 -86.8771 90° East  Level Estimated
Fri 04:24:00 PM 21.0365 -86.8771 90° East  Level Estimated
Fri 04:25:00 PM 21.0365 -86.8771 90° East  Level Estimated
Fri 04:26:00 PM 21.0365 -86.8771 90° East  Level Estimated
Fri 04:27:00 PM 21.0365 -86.8771 90° East  Level Estimated
Fri 04:28:00 PM 21.0365 -86.8771 90° East  Level Estimated

Login

Don't have an account? Register now (free) for customized features, flight alerts, and more!